Time;durP1;ratioP1;P1;durP2;ratioP2;P2;SDS_P1;SDS_P2;PMS_P1;PMS_P2;Temp;Humidity;BMP_temperature;BMP_pressure;BME280_temperature;BME280_humidity;BME280_pressure;Samples;Min_cycle;Max_cycle;Signal;HPM_P1;HPM_P2
2022/12/14 00:01:24;;;;;;;49.53;17.10;;;;;;;-148.88;100.00;77550.88;4994083;28;20080;-78
2022/12/14 00:03:50;;;;;;;42.00;16.77;;;;;;;-148.88;100.00;77552.91;4996123;28;20053;-81
2022/12/14 00:06:19;;;;;;;45.47;14.52;;;;;;;-148.88;100.00;77548.84;4998701;28;20129;-80
2022/12/14 00:08:46;;;;;;;46.97;17.17;;;;;;;-148.88;100.00;77548.84;5000234;28;20049;-81
2022/12/14 00:11:13;;;;;;;49.47;17.35;;;;;;;-148.88;100.00;77552.91;4998748;28;20030;-81
2022/12/14 00:13:39;;;;;;;46.20;17.27;;;;;;;-148.88;100.00;77544.78;4997464;28;20196;-81
2022/12/14 00:16:07;;;;;;;51.15;16.42;;;;;;;-148.88;100.00;77544.78;4998456;28;20026;-81
2022/12/14 00:18:33;;;;;;;43.05;16.48;;;;;;;-148.88;100.00;77540.72;4998013;28;20109;-81
2022/12/14 00:21:12;;;;;;;49.35;16.38;;;;;;;-148.88;100.00;77538.69;4996273;28;20096;-81
2022/12/14 00:23:39;;;;;;;50.97;17.48;;;;;;;-148.88;100.00;77540.72;4997131;28;20098;-81
2022/12/14 00:26:10;;;;;;;42.00;15.55;;;;;;;-148.88;100.00;77542.75;4999035;28;20033;-81
2022/12/14 00:28:36;;;;;;;51.75;18.33;;;;;;;-148.88;100.00;77542.75;4996403;28;20489;-80
2022/12/14 00:31:01;;;;;;;46.97;17.30;;;;;;;-148.88;100.00;77542.75;4991204;28;20036;-79
2022/12/14 00:33:26;;;;;;;46.20;16.42;;;;;;;-148.88;100.00;77542.75;4992751;28;20018;-80
2022/12/14 00:35:52;;;;;;;50.13;15.13;;;;;;;-148.88;100.00;77544.78;4993655;28;20466;-80
2022/12/14 00:38:17;;;;;;;40.72;15.52;;;;;;;-148.88;100.00;77548.84;4993655;28;20100;-80
2022/12/14 00:40:42;;;;;;;41.08;16.80;;;;;;;-148.88;100.00;77536.66;4997636;28;20030;-80
2022/12/14 00:43:08;;;;;;;43.22;15.60;;;;;;;-148.88;100.00;77540.72;4997949;28;20096;-80
2022/12/14 00:45:33;;;;;;;43.72;15.32;;;;;;;-148.88;100.00;77544.78;4998051;28;20033;-82
2022/12/14 00:47:58;;;;;;;38.05;14.45;;;;;;;-148.88;100.00;77546.81;4999509;28;20030;-81
2022/12/14 00:50:23;;;;;;;39.42;15.30;;;;;;;-148.88;100.00;77538.69;4999604;28;20451;-81
2022/12/14 00:52:49;;;;;;;42.03;15.25;;;;;;;-148.88;100.00;77536.66;4998659;28;20027;-81
2022/12/14 00:55:14;;;;;;;42.25;15.55;;;;;;;-148.88;100.00;77538.69;4998828;28;20042;-81
2022/12/14 00:57:39;;;;;;;39.90;14.25;;;;;;;-148.88;100.00;77532.59;4997858;28;20018;-81
2022/12/14 01:00:06;;;;;;;41.70;14.55;;;;;;;-148.88;100.00;77532.59;4999603;28;20040;-80
2022/12/14 01:02:31;;;;;;;42.38;14.70;;;;;;;-148.88;100.00;77536.66;4996540;28;20030;-81
2022/12/14 01:04:56;;;;;;;43.20;15.18;;;;;;;-148.88;100.00;77532.59;4993145;28;20524;-79
2022/12/14 01:07:22;;;;;;;34.88;14.70;;;;;;;-148.88;100.00;77526.47;5020933;23;20049;-84
2022/12/14 01:09:47;;;;;;;38.97;15.57;;;;;;;-148.88;100.00;77528.50;5011940;28;20072;-84
2022/12/14 01:12:12;;;;;;;42.05;15.68;;;;;;;-148.88;100.00;77534.63;5011934;28;20064;-83
2022/12/14 01:14:38;;;;;;;40.70;15.30;;;;;;;-148.88;100.00;77526.47;5013936;28;20057;-86
2022/12/14 01:17:03;;;;;;;43.28;15.40;;;;;;;-148.88;100.00;77520.38;5015067;28;20080;-85
2022/12/14 01:19:28;;;;;;;38.85;13.60;;;;;;;-148.88;100.00;77516.31;5013936;28;20072;-85
2022/12/14 01:21:54;;;;;;;38.28;14.52;;;;;;;-148.88;100.00;77518.34;5014118;28;20611;-85
2022/12/14 01:24:19;;;;;;;34.25;13.40;;;;;;;-148.88;100.00;77516.31;5014026;28;20049;-86
2022/12/14 01:26:44;;;;;;;38.20;14.43;;;;;;;-148.88;100.00;77512.25;5013459;28;20033;-85
2022/12/14 01:29:10;;;;;;;38.58;12.90;;;;;;;-148.88;100.00;77520.38;5014548;28;20120;-85
2022/12/14 01:31:37;;;;;;;40.30;12.70;;;;;;;-148.88;100.00;77524.44;5012828;28;20022;-86
2022/12/14 01:34:03;;;;;;;35.22;13.13;;;;;;;-148.88;100.00;77526.47;5012784;28;20096;-86
2022/12/14 01:36:31;;;;;;;40.60;15.15;;;;;;;-148.88;100.00;77538.69;5013935;28;20026;-86
2022/12/14 01:39:02;;;;;;;34.38;12.40;;;;;;;-148.88;100.00;77528.50;5012022;28;20032;-86
2022/12/14 01:41:37;;;;;;;34.40;12.43;;;;;;;-148.88;100.00;77530.53;5014324;28;20030;-85
2022/12/14 01:44:23;;;;;;;33.75;13.20;;;;;;;-148.88;100.00;77530.53;5015556;28;20492;-85
2022/12/14 01:46:59;;;;;;;31.38;12.35;;;;;;;-148.88;100.00;77536.66;5015155;28;20492;-86
2022/12/14 01:49:41;;;;;;;38.60;13.85;;;;;;;-148.88;100.00;77532.59;5015442;28;20416;-85
2022/12/14 01:52:08;;;;;;;37.63;13.40;;;;;;;-148.88;100.00;77522.41;5016812;28;20476;-85
2022/12/14 01:54:39;;;;;;;32.17;11.82;;;;;;;-148.88;100.00;77526.47;5016947;28;20036;-85
2022/12/14 01:57:05;;;;;;;34.65;12.60;;;;;;;-148.88;100.00;77520.38;5015406;28;20435;-85
2022/12/14 01:59:34;;;;;;;38.78;13.48;;;;;;;-148.88;100.00;77524.44;5016519;28;20057;-85
2022/12/14 02:02:03;;;;;;;34.35;13.52;;;;;;;-148.88;100.00;77522.41;5015442;28;20369;-84
2022/12/14 02:04:29;;;;;;;36.50;13.10;;;;;;;-148.88;100.00;77516.31;5015462;28;20057;-85
2022/12/14 02:06:55;;;;;;;39.33;13.80;;;;;;;-148.88;100.00;77508.19;5015059;28;20103;-86
2022/12/14 02:09:26;;;;;;;33.65;13.48;;;;;;;-148.88;100.00;77516.31;5015259;28;20029;-85
2022/12/14 02:12:03;;;;;;;45.53;14.48;;;;;;;-148.88;100.00;77520.38;5015187;28;20026;-84
2022/12/14 02:14:29;;;;;;;39.35;14.52;;;;;;;-148.88;100.00;77524.44;5021634;28;20022;-86
2022/12/14 02:16:56;;;;;;;35.80;12.55;;;;;;;-148.88;100.00;77518.34;5022624;28;20022;-86
2022/12/14 02:19:21;;;;;;;41.03;14.55;;;;;;;-148.88;100.00;77512.25;5020888;28;20026;-86
2022/12/14 02:22:25;;;;;;;34.95;13.85;;;;;;;-148.88;100.00;77528.50;5021054;28;20033;-86
2022/12/14 02:25:07;;;;;;;38.30;12.93;;;;;;;-148.88;100.00;77528.50;5020904;28;20105;-86
2022/12/14 02:28:02;;;;;;;39.50;12.15;;;;;;;-148.88;100.00;77520.38;5020486;28;20558;-86
2022/12/14 02:30:33;;;;;;;33.65;12.32;;;;;;;-148.88;100.00;77516.31;5019896;28;20119;-86
2022/12/14 02:33:18;;;;;;;36.30;12.25;;;;;;;-148.88;100.00;77512.25;5019839;28;20192;-86
2022/12/14 02:36:00;;;;;;;33.67;12.50;;;;;;;-148.88;100.00;77508.19;5017555;28;20496;-86
2022/12/14 02:38:37;;;;;;;39.42;12.13;;;;;;;-148.88;100.00;77500.06;5019204;28;20040;-84
2022/12/14 02:41:37;;;;;;;40.13;12.48;;;;;;;-148.88;100.00;77514.28;5017241;28;20026;-84
2022/12/14 02:44:25;;;;;;;30.38;11.45;;;;;;;-148.88;100.00;77508.19;5015959;28;20113;-86
2022/12/14 02:46:58;;;;;;;33.08;11.98;;;;;;;-148.88;100.00;77508.19;5013945;28;20025;-85
2022/12/14 02:49:39;;;;;;;32.95;12.23;;;;;;;-148.88;100.00;77512.25;5014054;28;20036;-84
2022/12/14 02:52:37;;;;;;;36.15;13.18;;;;;;;-148.88;100.00;77520.38;5017013;28;20026;-85
2022/12/14 02:55:10;;;;;;;35.67;11.63;;;;;;;-148.88;100.00;77518.34;5013888;28;20472;-84
2022/12/14 02:57:45;;;;;;;35.90;12.30;;;;;;;-148.88;100.00;77520.38;5015260;28;20477;-85
2022/12/14 03:00:11;;;;;;;38.08;13.15;;;;;;;-148.88;100.00;77516.31;5014207;28;20034;-84
2022/12/14 03:02:39;;;;;;;32.47;11.50;;;;;;;-148.88;100.00;77520.38;5015293;28;20388;-85
2022/12/14 03:05:05;;;;;;;32.10;11.88;;;;;;;-148.88;100.00;77516.31;5013905;28;20022;-85
2022/12/14 03:07:41;;;;;;;32.35;11.10;;;;;;;-148.88;100.00;77520.38;5014019;28;20037;-85
2022/12/14 03:10:44;;;;;;;30.45;12.15;;;;;;;-148.88;100.00;77518.34;5015108;28;20488;-85
2022/12/14 03:13:20;;;;;;;32.05;11.55;;;;;;;-148.88;100.00;77514.28;5016230;28;20477;-86
2022/12/14 03:15:54;;;;;;;34.72;11.57;;;;;;;-148.88;100.00;77512.25;5016521;28;20026;-85
2022/12/14 03:18:22;;;;;;;35.80;12.15;;;;;;;-148.88;100.00;77512.25;5014060;28;20021;-86
2022/12/14 03:20:52;;;;;;;36.70;11.50;;;;;;;-148.88;100.00;77516.31;5013364;28;20021;-85
2022/12/14 03:23:21;;;;;;;32.70;11.55;;;;;;;-148.88;100.00;77516.31;5014582;28;20554;-84
2022/12/14 03:25:54;;;;;;;33.50;12.30;;;;;;;-148.88;100.00;77522.41;5013573;28;20029;-84
2022/12/14 03:28:37;;;;;;;33.78;12.20;;;;;;;-148.88;100.00;77520.38;5013526;28;20156;-85
2022/12/14 03:31:10;;;;;;;31.83;11.25;;;;;;;-148.88;100.00;77516.31;5015751;28;20028;-84
2022/12/14 03:33:39;;;;;;;33.28;10.80;;;;;;;-148.88;100.00;77516.31;5015358;28;20026;-85
2022/12/14 03:36:47;;;;;;;33.00;12.52;;;;;;;-148.88;100.00;77510.22;5015324;28;20025;-84
2022/12/14 03:39:25;;;;;;;34.28;11.98;;;;;;;-148.88;100.00;77508.19;4920133;29;20055;-84
2022/12/14 03:42:19;;;;;;;40.67;11.98;;;;;;;-148.88;100.00;77520.38;5009558;28;20030;-85
2022/12/14 03:44:52;;;;;;;38.67;12.50;;;;;;;-148.88;100.00;77520.38;5012920;28;20041;-85
2022/12/14 03:47:23;;;;;;;29.17;11.05;;;;;;;-148.88;100.00;77512.25;5015933;28;20036;-85
2022/12/14 03:50:05;;;;;;;29.45;11.80;;;;;;;-148.88;100.00;77502.09;5017615;28;20030;-83
2022/12/14 03:52:55;;;;;;;40.72;14.07;;;;;;;-148.88;100.00;77508.19;5018921;28;20031;-82
2022/12/14 03:55:42;;;;;;;32.65;12.27;;;;;;;-148.88;100.00;77516.31;5013685;28;20029;-83
2022/12/14 03:58:41;;;;;;;33.40;12.32;;;;;;;-148.88;100.00;77512.25;5023573;28;20026;-84
2022/12/14 04:01:25;;;;;;;34.85;11.75;;;;;;;-148.88;100.00;77512.25;5019452;28;20025;-82
2022/12/14 04:03:59;;;;;;;36.22;13.25;;;;;;;-148.88;100.00;77514.28;5019488;28;20116;-84
2022/12/14 04:06:56;;;;;;;39.08;12.73;;;;;;;-148.88;100.00;77512.25;5018092;28;20026;-84
2022/12/14 04:09:55;;;;;;;35.75;12.20;;;;;;;-148.88;100.00;77512.25;5019399;28;20037;-83
2022/12/14 04:21:10;;;;;;;34.00;12.25;;;;;;;-148.88;100.00;77502.09;5018748;28;20121;-80
2022/12/14 04:26:33;;;;;;;28.98;10.57;;;;;;;-148.88;100.00;77498.03;5017818;28;20053;-85
2022/12/14 04:31:59;;;;;;;28.88;11.57;;;;;;;-148.88;100.00;77496.00;5014417;28;20080;-83
2022/12/14 04:34:27;;;;;;;28.48;11.13;;;;;;;-148.88;100.00;77487.88;5013568;28;20420;-82
2022/12/14 04:36:56;;;;;;;30.08;11.30;;;;;;;-148.88;100.00;77479.75;5014546;28;20072;-82
2022/12/14 04:39:34;;;;;;;32.97;11.43;;;;;;;-148.88;100.00;77487.88;5014620;28;20104;-84
2022/12/14 04:42:03;;;;;;;24.85;10.38;;;;;;;-148.88;100.00;77496.00;5013496;28;20057;-85
2022/12/14 04:44:33;;;;;;;34.65;11.02;;;;;;;-148.88;100.00;77487.88;5014560;28;20033;-84
2022/12/14 04:47:01;;;;;;;27.63;10.80;;;;;;;-148.88;100.00;77485.84;5014191;28;20022;-84
2022/12/14 04:49:38;;;;;;;32.22;10.80;;;;;;;-148.88;100.00;77481.78;5014193;28;20040;-84
2022/12/14 04:52:12;;;;;;;32.55;11.63;;;;;;;-148.88;100.00;77496.00;5013884;28;20033;-84
2022/12/14 04:54:45;;;;;;;29.17;11.30;;;;;;;-148.88;100.00;77483.81;5014977;28;20017;-84
2022/12/14 04:57:20;;;;;;;27.27;10.93;;;;;;;-148.88;100.00;77487.88;5014897;28;20472;-83
2022/12/14 04:59:46;;;;;;;32.72;11.85;;;;;;;-148.88;100.00;77491.94;5014728;28;20030;-82
2022/12/14 05:02:32;;;;;;;32.22;11.38;;;;;;;-148.88;100.00;77481.78;5014627;28;20461;-84
2022/12/14 05:05:10;;;;;;;34.45;12.23;;;;;;;-148.88;100.00;77477.72;5012061;28;20191;-84
2022/12/14 05:07:55;;;;;;;34.15;11.63;;;;;;;-148.88;100.00;77483.81;5012977;28;20034;-83
2022/12/14 05:10:45;;;;;;;25.27;10.30;;;;;;;-148.88;100.00;77481.78;5014612;28;20049;-84
2022/12/14 05:13:13;;;;;;;32.88;11.35;;;;;;;-148.88;100.00;77475.69;5014892;28;20111;-84
2022/12/14 05:15:46;;;;;;;30.13;11.95;;;;;;;-148.88;100.00;77481.78;5014372;28;20033;-84
2022/12/14 05:18:12;;;;;;;30.52;11.20;;;;;;;-148.88;100.00;77471.63;5017494;28;20037;-84
2022/12/14 05:20:38;;;;;;;29.63;11.77;;;;;;;-148.88;100.00;77479.75;5018071;28;20033;-84
2022/12/14 05:23:03;;;;;;;29.40;12.38;;;;;;;-148.88;100.00;77473.66;5018738;28;20025;-82
2022/12/14 05:25:28;;;;;;;34.25;11.13;;;;;;;-148.88;100.00;77475.69;5018233;28;20497;-84
2022/12/14 05:27:54;;;;;;;29.70;10.98;;;;;;;-148.88;100.00;77473.66;5018021;28;20036;-84
2022/12/14 05:30:19;;;;;;;22.77;10.00;;;;;;;-148.88;100.00;77471.63;5018584;28;20026;-85
2022/12/14 05:32:45;;;;;;;30.52;10.55;;;;;;;-148.88;100.00;77469.59;5017694;28;20018;-83
2022/12/14 05:35:12;;;;;;;29.42;9.90;;;;;;;-148.88;100.00;77467.56;5017052;28;20025;-86
2022/12/14 05:37:38;;;;;;;28.13;10.43;;;;;;;-148.88;100.00;77467.56;5016393;28;20053;-82
2022/12/14 05:40:04;;;;;;;27.15;10.73;;;;;;;-148.88;100.00;77467.56;5024108;28;20060;-85
2022/12/14 05:42:30;;;;;;;38.95;13.07;;;;;;;-148.88;100.00;77471.63;5029202;28;20083;-83
2022/12/14 05:44:55;;;;;;;37.25;11.43;;;;;;;-148.88;100.00;77471.63;5017761;28;20065;-82
2022/12/14 05:47:21;;;;;;;32.13;11.63;;;;;;;-148.88;100.00;77477.72;5017190;28;20060;-84
2022/12/14 05:49:46;;;;;;;34.28;12.38;;;;;;;-148.88;100.00;77467.56;5016652;28;20026;-85
2022/12/14 05:52:15;;;;;;;30.55;10.10;;;;;;;-148.88;100.00;77459.44;5016842;28;20044;-85
2022/12/14 05:54:41;;;;;;;29.58;10.43;;;;;;;-148.88;100.00;77451.28;5015329;28;20014;-86
2022/12/14 05:57:06;;;;;;;27.50;10.70;;;;;;;-148.88;100.00;77451.28;5015535;28;20029;-83
2022/12/14 05:59:32;;;;;;;23.40;9.60;;;;;;;-148.88;100.00;77451.28;5015880;28;20018;-84
2022/12/14 06:01:58;;;;;;;31.60;11.38;;;;;;;-148.88;100.00;77443.16;5015892;28;20026;-85
2022/12/14 06:04:24;;;;;;;31.13;10.52;;;;;;;-148.88;100.00;77439.09;5015844;28;20504;-84
2022/12/14 06:06:50;;;;;;;28.10;9.25;;;;;;;-148.88;100.00;77447.22;5016024;28;20377;-85
2022/12/14 06:09:16;;;;;;;29.25;10.35;;;;;;;-148.88;100.00;77447.22;5016129;28;20113;-83
2022/12/14 06:11:42;;;;;;;27.42;9.90;;;;;;;-148.88;100.00;77445.19;5016680;28;20026;-85
2022/12/14 06:14:12;;;;;;;28.02;10.43;;;;;;;-148.88;100.00;77445.19;5016942;28;20342;-86
2022/12/14 06:16:42;;;;;;;26.85;10.50;;;;;;;-148.88;100.00;77443.16;5016644;28;20116;-87
2022/12/14 06:19:09;;;;;;;27.52;10.00;;;;;;;-148.88;100.00;77430.97;5017324;28;20033;-87
2022/12/14 06:21:37;;;;;;;30.73;10.48;;;;;;;-148.88;100.00;77422.84;5017706;28;20065;-87
2022/12/14 06:24:03;;;;;;;24.80;8.98;;;;;;;-148.88;100.00;77414.72;5016528;28;20021;-87
2022/12/14 06:26:30;;;;;;;26.08;9.90;;;;;;;-148.88;100.00;77408.63;5017379;28;20060;-85
2022/12/14 06:28:56;;;;;;;29.13;10.82;;;;;;;-148.88;100.00;77406.59;5015988;28;20030;-87
2022/12/14 06:31:30;;;;;;;29.63;10.38;;;;;;;-148.88;100.00;77410.66;5017726;28;20416;-86
2022/12/14 06:33:58;;;;;;;25.35;10.73;;;;;;;-148.88;100.00;77414.72;5017036;28;20029;-87
2022/12/14 06:36:26;;;;;;;26.83;9.20;;;;;;;-148.88;100.00;77408.63;5016979;28;20059;-86
2022/12/14 06:38:56;;;;;;;25.65;9.88;;;;;;;-148.88;100.00;77406.59;5017358;28;20037;-86
2022/12/14 06:41:22;;;;;;;25.52;10.40;;;;;;;-148.88;100.00;77410.66;5016860;28;20034;-87
2022/12/14 06:43:49;;;;;;;24.92;9.88;;;;;;;-148.88;100.00;77400.50;5016898;28;20117;-88
2022/12/14 06:46:17;;;;;;;25.60;10.68;;;;;;;-148.88;100.00;77386.28;5016164;28;20376;-85
2022/12/14 06:48:46;;;;;;;29.30;10.90;;;;;;;-148.88;100.00;77382.22;5021220;28;20102;-87
2022/12/14 06:51:11;;;;;;;27.23;9.70;;;;;;;-148.88;100.00;77378.16;5022277;28;20105;-87
2022/12/14 06:53:36;;;;;;;27.67;10.48;;;;;;;-148.88;100.00;77378.16;5021699;28;20075;-86
2022/12/14 06:56:11;;;;;;;24.30;10.77;;;;;;;-148.88;100.00;77378.16;5023497;28;20025;-87
2022/12/14 06:58:36;;;;;;;29.52;9.77;;;;;;;-148.88;100.00;77374.09;5022691;28;20041;-86
2022/12/14 07:01:06;;;;;;;28.13;10.52;;;;;;;-148.88;100.00;77374.09;5021363;28;20048;-87
2022/12/14 07:03:32;;;;;;;24.15;9.40;;;;;;;-148.88;100.00;77372.03;5020758;28;20021;-86
2022/12/14 07:06:03;;;;;;;24.00;11.05;;;;;;;-148.88;100.00;77359.84;5021424;28;20025;-86
2022/12/14 07:08:33;;;;;;;30.05;11.18;;;;;;;-148.88;100.00;77361.88;5020316;28;20030;-86
2022/12/14 07:11:04;;;;;;;27.27;11.30;;;;;;;-148.88;100.00;77363.91;5021487;28;20036;-87
2022/12/14 07:13:30;;;;;;;25.73;10.75;;;;;;;-148.88;100.00;77361.88;5021633;28;20026;-86
2022/12/14 07:15:59;;;;;;;25.73;10.98;;;;;;;-148.88;100.00;77357.81;5022342;28;20102;-86
2022/12/14 07:18:26;;;;;;;25.75;9.70;;;;;;;-148.88;100.00;77355.78;5020361;28;20045;-87
2022/12/14 07:21:02;;;;;;;23.17;8.93;;;;;;;-148.88;100.00;77361.88;5018102;28;20492;-87
2022/12/14 07:23:30;;;;;;;31.27;10.60;;;;;;;-148.88;100.00;77357.81;5023587;28;20033;-86
2022/12/14 07:26:10;;;;;;;28.63;10.48;;;;;;;-148.88;100.00;77374.09;5021190;28;20393;-87
2022/12/14 07:28:37;;;;;;;26.33;9.70;;;;;;;-148.88;100.00;77357.81;5020868;28;20029;-86
2022/12/14 07:31:04;;;;;;;27.67;11.18;;;;;;;-148.88;100.00;77357.81;5021030;28;20053;-86
2022/12/14 07:33:30;;;;;;;24.30;9.88;;;;;;;-148.88;100.00;77359.84;5019983;28;20089;-86
2022/12/14 07:36:05;;;;;;;25.90;10.65;;;;;;;-148.88;100.00;77353.75;5020593;28;20065;-87
2022/12/14 07:38:32;;;;;;;29.10;9.55;;;;;;;-148.88;100.00;77347.66;5020246;28;20025;-87
2022/12/14 07:41:08;;;;;;;24.83;10.13;;;;;;;-148.88;100.00;77341.56;5022895;28;20064;-86
2022/12/14 07:43:35;;;;;;;25.42;10.00;;;;;;;-148.88;100.00;77341.56;5020538;28;20053;-86
2022/12/14 07:46:02;;;;;;;24.63;10.07;;;;;;;-148.88;100.00;77347.66;5020588;28;20018;-86
2022/12/14 07:48:31;;;;;;;27.88;10.65;;;;;;;-148.88;100.00;77339.53;5020118;28;20429;-86
2022/12/14 07:51:02;;;;;;;27.20;10.10;;;;;;;-148.88;100.00;77345.63;5019713;28;20026;-87
2022/12/14 07:53:28;;;;;;;26.90;9.70;;;;;;;-148.88;100.00;77343.59;5018367;28;20018;-87
2022/12/14 07:55:53;;;;;;;25.85;9.13;;;;;;;-148.88;100.00;77347.66;5019137;28;20152;-86
2022/12/14 07:58:18;;;;;;;25.25;10.30;;;;;;;-148.88;100.00;77345.63;5018338;28;20108;-86
2022/12/14 08:00:44;;;;;;;24.13;9.82;;;;;;;-148.88;100.00;77345.63;5018440;28;20426;-86
2022/12/14 08:03:10;;;;;;;19.75;8.93;;;;;;;-148.88;100.00;77341.56;5018962;28;20033;-88
2022/12/14 08:05:37;;;;;;;23.58;9.32;;;;;;;-148.88;100.00;77337.50;5023206;28;20037;-86
2022/12/14 08:08:03;;;;;;;24.85;10.38;;;;;;;-148.88;100.00;77329.38;5024209;28;20055;-87
2022/12/14 08:10:28;;;;;;;24.13;10.85;;;;;;;-148.88;100.00;77329.38;5023580;28;20040;-86
2022/12/14 08:12:54;;;;;;;30.02;10.15;;;;;;;-148.88;100.00;77321.25;5023859;28;20026;-86
2022/12/14 08:15:19;;;;;;;23.17;9.57;;;;;;;-148.88;100.00;77313.13;5024091;28;20079;-86
2022/12/14 08:17:44;;;;;;;27.38;10.60;;;;;;;-148.88;100.00;77313.13;5023391;28;20094;-86
2022/12/14 08:20:10;;;;;;;24.60;9.95;;;;;;;-148.88;100.00;77313.13;5023542;28;20021;-85
2022/12/14 08:22:35;;;;;;;24.65;9.65;;;;;;;-148.88;100.00;77309.06;5023850;28;20029;-86
2022/12/14 08:25:00;;;;;;;24.73;10.32;;;;;;;-148.88;100.00;77313.13;5024298;28;20033;-87
2022/12/14 08:27:26;;;;;;;30.17;11.85;;;;;;;-148.88;100.00;77309.06;5020232;28;20499;-86
2022/12/14 08:29:51;;;;;;;28.00;9.88;;;;;;;-148.88;100.00;77307.03;5022664;28;20025;-86
2022/12/14 08:32:17;;;;;;;27.23;9.88;;;;;;;-148.88;100.00;77298.91;5022902;28;20026;-86
2022/12/14 08:34:44;;;;;;;25.45;9.70;;;;;;;-148.88;100.00;77294.84;5023196;28;20071;-86
2022/12/14 08:37:09;;;;;;;24.15;10.30;;;;;;;-148.88;100.00;77292.81;5023130;28;20471;-86
2022/12/14 08:39:35;;;;;;;21.88;9.68;;;;;;;-148.88;100.00;77288.72;5023185;28;20037;-86
2022/12/14 08:42:00;;;;;;;25.92;10.18;;;;;;;-148.88;100.00;77282.63;5023617;28;20053;-86
2022/12/14 08:44:25;;;;;;;29.45;10.65;;;;;;;-148.88;100.00;77292.81;5023355;28;20037;-86
2022/12/14 08:46:51;;;;;;;23.25;9.63;;;;;;;-148.88;100.00;77292.81;5020353;28;20030;-87
2022/12/14 08:49:16;;;;;;;23.92;9.88;;;;;;;-148.88;100.00;77294.84;5018434;28;20037;-87
2022/12/14 08:51:41;;;;;;;26.35;10.80;;;;;;;-148.88;100.00;77300.94;5018478;28;20039;-87
2022/12/14 08:54:07;;;;;;;27.77;10.98;;;;;;;-148.88;100.00;77284.66;5022209;28;20057;-87
2022/12/14 08:56:32;;;;;;;22.23;10.30;;;;;;;-148.88;100.00;77288.72;5021216;28;20071;-88
2022/12/14 08:58:58;;;;;;;26.70;10.52;;;;;;;-148.88;100.00;77284.66;5020883;28;20026;-87
2022/12/14 09:01:26;;;;;;;27.40;11.68;;;;;;;-148.88;100.00;77280.59;5020949;28;20026;-88
2022/12/14 09:03:52;;;;;;;36.25;11.10;;;;;;;-148.88;100.00;77280.59;5022823;28;20043;-87
2022/12/14 09:06:22;;;;;;;22.73;10.60;;;;;;;-148.88;100.00;77282.63;5024840;28;20073;-87
2022/12/14 09:08:48;;;;;;;27.25;11.77;;;;;;;-148.88;100.00;77272.47;5022168;28;20076;-87
2022/12/14 09:11:15;;;;;;;32.53;10.10;;;;;;;-148.88;100.00;77276.53;5021110;28;20192;-87
2022/12/14 09:13:42;;;;;;;28.35;10.13;;;;;;;-148.88;100.00;77276.53;5020984;28;20113;-87
2022/12/14 09:16:12;;;;;;;26.27;10.35;;;;;;;-148.88;100.00;77282.63;5020799;28;20507;-87
2022/12/14 09:18:37;;;;;;;22.92;10.48;;;;;;;-148.88;100.00;77292.81;5021120;28;20101;-87
2022/12/14 09:21:03;;;;;;;27.20;10.73;;;;;;;-148.88;100.00;77296.88;5022608;28;20488;-87
2022/12/14 09:23:30;;;;;;;24.65;9.82;;;;;;;-148.88;100.00;77296.88;5021781;28;20030;-87
2022/12/14 09:26:18;;;;;;;28.58;10.27;;;;;;;-148.88;100.00;77292.81;5021122;28;20049;-88
2022/12/14 09:28:52;;;;;;;24.85;11.20;;;;;;;-148.88;100.00;77288.72;5020759;28;20032;-87
2022/12/14 09:31:21;;;;;;;23.95;9.65;;;;;;;-148.88;100.00;77292.81;5020667;28;20369;-86
2022/12/14 09:33:46;;;;;;;24.27;10.43;;;;;;;-148.88;100.00;77296.88;5021047;28;20018;-87
2022/12/14 09:36:14;;;;;;;26.45;10.98;;;;;;;-148.88;100.00;77296.88;5021097;28;20033;-88
2022/12/14 09:38:40;;;;;;;26.08;9.63;;;;;;;-148.88;100.00;77296.88;5020802;28;20033;-87
2022/12/14 09:41:19;;;;;;;28.45;10.10;;;;;;;-148.88;100.00;77296.88;5021918;28;20060;-87
2022/12/14 09:43:54;;;;;;;24.95;10.20;;;;;;;-148.88;100.00;77296.88;5021081;28;20034;-87
2022/12/14 09:46:23;;;;;;;29.17;10.63;;;;;;;-148.88;100.00;77309.06;5019481;28;20094;-87
2022/12/14 09:48:49;;;;;;;22.60;10.55;;;;;;;-148.88;100.00;77298.91;5019464;28;20043;-87
2022/12/14 09:51:18;;;;;;;24.45;10.82;;;;;;;-148.88;100.00;77300.94;5019320;28;20017;-86
2022/12/14 09:53:46;;;;;;;29.02;10.85;;;;;;;-148.88;100.00;77296.88;5020096;28;20117;-87
2022/12/14 09:56:18;;;;;;;24.27;9.32;;;;;;;-148.88;100.00;77284.66;5019896;28;20021;-87
2022/12/14 09:58:58;;;;;;;28.88;11.10;;;;;;;-148.88;100.00;77272.47;5019738;28;20029;-87
2022/12/14 10:01:48;;;;;;;26.20;10.85;;;;;;;-148.88;100.00;77239.97;5021088;28;20109;-87
2022/12/14 10:04:16;;;;;;;26.65;10.65;;;;;;;-148.88;100.00;77227.78;5019179;28;20041;-87
2022/12/14 10:06:56;;;;;;;26.40;10.60;;;;;;;-148.88;100.00;77203.41;5019492;28;20030;-87
2022/12/14 10:09:37;;;;;;;25.48;9.05;;;;;;;-148.88;100.00;77170.88;5018844;28;20144;-88
2022/12/14 10:12:39;;;;;;;23.65;9.85;;;;;;;-148.88;100.00;77136.34;5022491;28;20036;-87
2022/12/14 10:15:19;;;;;;;24.90;9.85;;;;;;;-148.88;100.00;77109.94;5019787;28;20129;-87
2022/12/14 10:17:59;;;;;;;20.73;9.02;;;;;;;-148.88;100.00;77081.47;5017553;28;20099;-87
2022/12/14 10:20:40;;;;;;;16.17;8.55;;;;;;;-148.88;100.00;77053.03;5018983;28;20396;-87
2022/12/14 10:23:12;;;;;;;18.90;8.45;;;;;;;-148.88;100.00;77028.66;5016258;28;20034;-88
2022/12/14 10:25:39;;;;;;;22.50;9.37;;;;;;;-148.88;100.00;76985.97;5016797;28;20022;-87
2022/12/14 10:28:16;;;;;;;21.95;8.63;;;;;;;-148.88;99.88;76965.66;5015224;28;20457;-87
2022/12/14 10:30:42;;;;;;;26.02;8.13;;;;;;;-148.88;98.85;76931.13;5015312;28;20092;-86
2022/12/14 10:33:12;;;;;;;19.60;8.15;;;;;;;-148.88;97.85;76910.81;5014835;28;20027;-87
2022/12/14 10:35:48;;;;;;;23.17;8.65;;;;;;;-148.88;97.10;76890.50;5014783;28;20018;-87
2022/12/14 10:38:41;;;;;;;22.30;8.35;;;;;;;-148.88;96.50;76866.09;5015244;28;20113;-86
2022/12/14 10:41:40;;;;;;;19.05;7.45;;;;;;;-148.88;94.60;76853.91;5014282;28;20022;-86
2022/12/14 10:44:14;;;;;;;17.02;7.22;;;;;;;-148.88;94.04;76825.47;5014121;28;20396;-87
2022/12/14 10:47:00;;;;;;;19.33;7.07;;;;;;;-148.88;92.77;76795.00;5014399;28;20042;-84
2022/12/14 10:49:43;;;;;;;17.75;6.35;;;;;;;-148.88;89.75;76780.78;5015231;28;20018;-86
2022/12/14 10:52:15;;;;;;;14.85;6.90;;;;;;;-148.88;87.79;76768.59;5014671;28;20488;-86
2022/12/14 10:55:08;;;;;;;15.65;6.03;;;;;;;-148.88;88.50;76744.19;5014947;28;20026;-86
2022/12/14 10:57:33;;;;;;;14.50;5.80;;;;;;;-148.88;87.29;76727.94;5014812;28;20172;-86
2022/12/14 10:59:58;;;;;;;14.27;6.63;;;;;;;-148.88;85.67;76707.63;5014047;28;20057;-86
2022/12/14 11:02:27;;;;;;;14.57;6.32;;;;;;;-148.88;85.97;76687.31;5014284;28;20034;-86
2022/12/14 11:04:58;;;;;;;14.07;6.15;;;;;;;-148.88;84.17;76687.31;5014151;28;20115;-86
2022/12/14 11:07:46;;;;;;;13.57;6.40;;;;;;;-148.88;86.48;76636.53;5014146;28;20029;-85
2022/12/14 11:10:16;;;;;;;18.35;8.10;;;;;;;-148.88;86.81;76597.91;5013997;28;20080;-86
2022/12/14 11:13:13;;;;;;;16.27;8.38;;;;;;;-148.88;86.85;76581.66;5013974;28;20033;-86
2022/12/14 11:15:47;;;;;;;19.83;8.02;;;;;;;-148.88;86.53;76549.16;5013611;28;20045;-85
2022/12/14 11:18:15;;;;;;;17.83;7.97;;;;;;;-148.88;84.85;76539.00;5013564;28;20029;-85
2022/12/14 11:20:56;;;;;;;19.55;7.35;;;;;;;-148.88;83.29;76545.09;5013497;28;20116;-86
2022/12/14 11:23:25;;;;;;;16.15;6.90;;;;;;;-148.88;83.43;76532.91;5014893;28;20427;-86
2022/12/14 11:26:02;;;;;;;17.65;6.70;;;;;;;-148.88;80.67;76536.97;5013606;28;20109;-86
2022/12/14 11:28:47;;;;;;;15.43;7.18;;;;;;;-148.88;78.67;76545.09;5013593;28;20037;-87
2022/12/14 11:31:43;;;;;;;10.82;5.45;;;;;;;-148.88;78.23;76547.13;5014308;28;20192;-86